sensor_id;sensor_type;location;lat;lon;timestamp;pressure;altitude;pressure_sealevel;temperature;humidity
48968;BME280;46511;53.148;8.204;2023-07-22T00:00:46;101233.81;;;14.43;100.00
48968;BME280;46511;53.148;8.204;2023-07-22T00:03:17;101222.78;;;14.21;100.00
48968;BME280;46511;53.148;8.204;2023-07-22T00:05:49;101231.84;;;14.33;100.00
48968;BME280;46511;53.148;8.204;2023-07-22T00:08:20;101241.81;;;14.43;100.00
48968;BME280;46511;53.148;8.204;2023-07-22T00:10:54;101229.72;;;14.38;100.00
48968;BME280;46511;53.148;8.204;2023-07-22T00:13:25;101234.94;;;14.39;100.00
48968;BME280;46511;53.148;8.204;2023-07-22T00:15:57;101232.69;;;14.33;100.00
48968;BME280;46511;53.148;8.204;2023-07-22T00:18:33;101241.06;;;14.41;100.00
48968;BME280;46511;53.148;8.204;2023-07-22T00:21:04;101239.38;;;14.40;100.00
48968;BME280;46511;53.148;8.204;2023-07-22T00:23:35;101233.34;;;14.37;100.00
48968;BME280;46511;53.148;8.204;2023-07-22T00:26:07;101230.56;;;14.38;100.00
48968;BME280;46511;53.148;8.204;2023-07-22T00:28:38;101234.50;;;14.33;100.00
48968;BME280;46511;53.148;8.204;2023-07-22T00:31:10;101239.28;;;14.27;100.00
48968;BME280;46511;53.148;8.204;2023-07-22T00:33:41;101236.72;;;14.26;100.00
48968;BME280;46511;53.148;8.204;2023-07-22T00:36:12;101233.09;;;14.27;100.00
48968;BME280;46511;53.148;8.204;2023-07-22T00:38:43;101234.53;;;14.18;100.00
48968;BME280;46511;53.148;8.204;2023-07-22T00:41:15;101227.59;;;14.16;100.00
48968;BME280;46511;53.148;8.204;2023-07-22T00:43:46;101232.06;;;14.15;100.00
48968;BME280;46511;53.148;8.204;2023-07-22T00:46:17;101234.25;;;14.09;100.00
48968;BME280;46511;53.148;8.204;2023-07-22T00:48:49;101235.72;;;14.00;100.00
48968;BME280;46511;53.148;8.204;2023-07-22T00:51:20;101235.81;;;14.13;100.00
48968;BME280;46511;53.148;8.204;2023-07-22T00:53:53;101238.16;;;14.17;100.00
48968;BME280;46511;53.148;8.204;2023-07-22T00:56:24;101237.91;;;14.08;100.00
48968;BME280;46511;53.148;8.204;2023-07-22T00:58:56;101231.03;;;14.04;100.00
48968;BME280;46511;53.148;8.204;2023-07-22T01:01:27;101241.53;;;14.07;100.00
48968;BME280;46511;53.148;8.204;2023-07-22T01:03:59;101228.00;;;13.95;100.00
48968;BME280;46511;53.148;8.204;2023-07-22T01:06:32;101229.72;;;13.96;100.00
48968;BME280;46511;53.148;8.204;2023-07-22T01:09:05;101229.13;;;14.06;100.00
48968;BME280;46511;53.148;8.204;2023-07-22T01:11:38;101219.31;;;14.06;100.00
48968;BME280;46511;53.148;8.204;2023-07-22T01:14:09;101219.69;;;14.00;100.00
48968;BME280;46511;53.148;8.204;2023-07-22T01:16:40;101219.81;;;13.84;100.00
48968;BME280;46511;53.148;8.204;2023-07-22T01:19:12;101216.19;;;13.85;100.00
48968;BME280;46511;53.148;8.204;2023-07-22T01:21:45;101217.13;;;13.98;100.00
48968;BME280;46511;53.148;8.204;2023-07-22T01:24:17;101217.31;;;13.81;100.00
48968;BME280;46511;53.148;8.204;2023-07-22T01:26:49;101221.81;;;13.81;100.00
48968;BME280;46511;53.148;8.204;2023-07-22T01:29:24;101218.75;;;13.87;100.00
48968;BME280;46511;53.148;8.204;2023-07-22T01:31:55;101221.31;;;13.88;100.00
48968;BME280;46511;53.148;8.204;2023-07-22T01:34:27;101220.56;;;13.72;100.00
48968;BME280;46511;53.148;8.204;2023-07-22T01:36:58;101218.06;;;13.83;100.00
48968;BME280;46511;53.148;8.204;2023-07-22T01:39:30;101217.31;;;13.81;100.00
48968;BME280;46511;53.148;8.204;2023-07-22T01:42:02;101219.03;;;13.82;100.00
48968;BME280;46511;53.148;8.204;2023-07-22T01:44:33;101220.00;;;13.81;100.00
48968;BME280;46511;53.148;8.204;2023-07-22T01:47:04;101210.56;;;13.76;100.00
48968;BME280;46511;53.148;8.204;2023-07-22T01:49:36;101217.72;;;13.75;100.00
48968;BME280;46511;53.148;8.204;2023-07-22T01:52:07;101222.13;;;13.76;100.00
48968;BME280;46511;53.148;8.204;2023-07-22T01:54:38;101220.56;;;13.72;100.00
48968;BME280;46511;53.148;8.204;2023-07-22T01:57:09;101226.50;;;13.77;100.00
48968;BME280;46511;53.148;8.204;2023-07-22T01:59:41;101222.22;;;13.75;100.00
48968;BME280;46511;53.148;8.204;2023-07-22T02:02:12;101222.84;;;13.64;100.00
48968;BME280;46511;53.148;8.204;2023-07-22T02:04:43;101217.94;;;13.58;100.00
48968;BME280;46511;53.148;8.204;2023-07-22T02:07:15;101214.78;;;13.51;100.00
48968;BME280;46511;53.148;8.204;2023-07-22T02:09:46;101218.88;;;13.57;100.00
48968;BME280;46511;53.148;8.204;2023-07-22T02:12:17;101216.78;;;13.48;100.00
48968;BME280;46511;53.148;8.204;2023-07-22T02:14:49;101222.13;;;13.48;100.00
48968;BME280;46511;53.148;8.204;2023-07-22T02:17:20;101228.19;;;13.35;100.00
48968;BME280;46511;53.148;8.204;2023-07-22T02:19:52;101229.72;;;13.39;100.00
48968;BME280;46511;53.148;8.204;2023-07-22T02:22:23;101226.00;;;13.28;100.00
48968;BME280;46511;53.148;8.204;2023-07-22T02:24:54;101234.69;;;13.31;100.00
48968;BME280;46511;53.148;8.204;2023-07-22T02:27:25;101233.00;;;13.14;100.00
48968;BME280;46511;53.148;8.204;2023-07-22T02:29:57;101229.13;;;13.20;100.00
48968;BME280;46511;53.148;8.204;2023-07-22T02:32:28;101235.44;;;13.19;100.00
48968;BME280;46511;53.148;8.204;2023-07-22T02:34:59;101235.22;;;13.22;100.00
48968;BME280;46511;53.148;8.204;2023-07-22T02:37:31;101231.88;;;13.19;100.00
48968;BME280;46511;53.148;8.204;2023-07-22T02:40:02;101235.34;;;13.05;100.00
48968;BME280;46511;53.148;8.204;2023-07-22T02:42:39;101245.84;;;13.08;100.00
48968;BME280;46511;53.148;8.204;2023-07-22T02:45:10;101247.97;;;13.17;100.00
48968;BME280;46511;53.148;8.204;2023-07-22T02:47:42;101252.13;;;13.07;100.00
48968;BME280;46511;53.148;8.204;2023-07-22T02:50:13;101250.94;;;12.97;100.00
48968;BME280;46511;53.148;8.204;2023-07-22T02:52:44;101248.78;;;13.03;100.00
48968;BME280;46511;53.148;8.204;2023-07-22T02:55:17;101265.84;;;13.01;100.00
48968;BME280;46511;53.148;8.204;2023-07-22T02:57:51;101264.88;;;13.02;100.00
48968;BME280;46511;53.148;8.204;2023-07-22T03:00:22;101268.44;;;12.86;100.00
48968;BME280;46511;53.148;8.204;2023-07-22T03:02:56;101263.72;;;13.06;100.00
48968;BME280;46511;53.148;8.204;2023-07-22T03:05:35;101260.13;;;13.07;100.00
48968;BME280;46511;53.148;8.204;2023-07-22T03:08:07;101263.94;;;13.03;100.00
48968;BME280;46511;53.148;8.204;2023-07-22T03:10:38;101267.75;;;12.99;100.00
48968;BME280;46511;53.148;8.204;2023-07-22T03:13:09;101263.81;;;12.90;100.00
48968;BME280;46511;53.148;8.204;2023-07-22T03:15:40;101268.50;;;13.01;100.00
48968;BME280;46511;53.148;8.204;2023-07-22T03:18:11;101270.22;;;13.02;100.00
48968;BME280;46511;53.148;8.204;2023-07-22T03:20:43;101272.88;;;13.02;100.00
48968;BME280;46511;53.148;8.204;2023-07-22T03:23:14;101272.88;;;13.02;100.00
48968;BME280;46511;53.148;8.204;2023-07-22T03:25:46;101279.75;;;13.06;100.00
48968;BME280;46511;53.148;8.204;2023-07-22T03:28:17;101277.06;;;13.06;100.00
48968;BME280;46511;53.148;8.204;2023-07-22T03:30:48;101282.31;;;13.07;100.00
48968;BME280;46511;53.148;8.204;2023-07-22T03:33:20;101283.19;;;13.08;100.00
48968;BME280;46511;53.148;8.204;2023-07-22T03:35:51;101278.31;;;13.00;100.00
48968;BME280;46511;53.148;8.204;2023-07-22T03:38:22;101284.75;;;12.96;100.00
48968;BME280;46511;53.148;8.204;2023-07-22T03:40:53;101281.84;;;13.01;100.00
48968;BME280;46511;53.148;8.204;2023-07-22T03:43:25;101280.59;;;13.06;100.00
48968;BME280;46511;53.148;8.204;2023-07-22T03:45:56;101272.69;;;13.05;100.00
48968;BME280;46511;53.148;8.204;2023-07-22T03:48:28;101283.09;;;13.09;100.00
48968;BME280;46511;53.148;8.204;2023-07-22T03:50:59;101285.06;;;13.06;100.00
48968;BME280;46511;53.148;8.204;2023-07-22T03:53:30;101280.25;;;13.12;100.00
48968;BME280;46511;53.148;8.204;2023-07-22T03:56:02;101280.34;;;13.11;100.00
48968;BME280;46511;53.148;8.204;2023-07-22T03:58:33;101277.88;;;13.08;100.00
48968;BME280;46511;53.148;8.204;2023-07-22T04:01:04;101266.28;;;13.23;100.00
48968;BME280;46511;53.148;8.204;2023-07-22T04:03:36;101268.97;;;13.23;100.00
48968;BME280;46511;53.148;8.204;2023-07-22T04:06:07;101265.75;;;13.32;100.00
48968;BME280;46511;53.148;8.204;2023-07-22T04:08:38;101270.97;;;13.34;100.00
48968;BME280;46511;53.148;8.204;2023-07-22T04:11:10;101283.75;;;13.29;100.00
48968;BME280;46511;53.148;8.204;2023-07-22T04:13:41;101281.28;;;13.40;100.00
48968;BME280;46511;53.148;8.204;2023-07-22T04:16:13;101286.19;;;13.48;100.00
48968;BME280;46511;53.148;8.204;2023-07-22T04:18:44;101287.19;;;13.45;100.00
48968;BME280;46511;53.148;8.204;2023-07-22T04:21:15;101289.59;;;13.50;100.00
48968;BME280;46511;53.148;8.204;2023-07-22T04:23:46;101298.97;;;13.71;100.00
48968;BME280;46511;53.148;8.204;2023-07-22T04:26:17;101297.25;;;13.70;100.00
48968;BME280;46511;53.148;8.204;2023-07-22T04:28:49;101294.41;;;13.87;100.00
48968;BME280;46511;53.148;8.204;2023-07-22T04:31:20;101295.81;;;13.79;100.00
48968;BME280;46511;53.148;8.204;2023-07-22T04:33:51;101291.53;;;14.05;100.00
48968;BME280;46511;53.148;8.204;2023-07-22T04:36:22;101293.03;;;14.23;100.00
48968;BME280;46511;53.148;8.204;2023-07-22T04:38:55;101294.91;;;14.35;100.00
48968;BME280;46511;53.148;8.204;2023-07-22T04:41:26;101297.41;;;14.52;100.00
48968;BME280;46511;53.148;8.204;2023-07-22T04:43:57;101294.13;;;14.62;100.00
48968;BME280;46511;53.148;8.204;2023-07-22T04:46:29;101285.88;;;14.65;100.00
48968;BME280;46511;53.148;8.204;2023-07-22T04:49:01;101289.38;;;14.79;100.00
48968;BME280;46511;53.148;8.204;2023-07-22T04:51:32;101294.53;;;14.82;100.00
48968;BME280;46511;53.148;8.204;2023-07-22T04:54:03;101287.09;;;15.00;100.00
48968;BME280;46511;53.148;8.204;2023-07-22T04:56:34;101293.50;;;14.98;100.00
48968;BME280;46511;53.148;8.204;2023-07-22T04:59:06;101289.03;;;15.11;100.00
48968;BME280;46511;53.148;8.204;2023-07-22T05:01:37;101291.44;;;15.28;100.00
48968;BME280;46511;53.148;8.204;2023-07-22T05:04:08;101286.31;;;15.38;100.00
48968;BME280;46511;53.148;8.204;2023-07-22T05:06:40;101282.88;;;15.49;100.00
48968;BME280;46511;53.148;8.204;2023-07-22T05:09:11;101290.31;;;15.70;100.00
48968;BME280;46511;53.148;8.204;2023-07-22T05:11:42;101282.06;;;15.86;100.00
48968;BME280;46511;53.148;8.204;2023-07-22T05:14:13;101283.53;;;16.03;100.00
48968;BME280;46511;53.148;8.204;2023-07-22T05:16:44;101287.34;;;16.24;100.00
48968;BME280;46511;53.148;8.204;2023-07-22T05:19:16;101281.53;;;16.31;100.00
48968;BME280;46511;53.148;8.204;2023-07-22T05:21:42;101275.75;;;16.84;100.00
48968;BME280;46511;53.148;8.204;2023-07-22T05:24:13;101278.31;;;16.86;100.00
48968;BME280;46511;53.148;8.204;2023-07-22T05:26:44;101276.50;;;16.87;100.00
48968;BME280;46511;53.148;8.204;2023-07-22T05:29:16;101273.31;;;16.81;100.00
48968;BME280;46511;53.148;8.204;2023-07-22T05:31:47;101273.59;;;16.90;100.00
48968;BME280;46511;53.148;8.204;2023-07-22T05:34:18;101264.75;;;17.00;100.00
48968;BME280;46511;53.148;8.204;2023-07-22T05:36:49;101277.53;;;16.97;100.00
48968;BME280;46511;53.148;8.204;2023-07-22T05:39:21;101265.91;;;17.20;100.00
48968;BME280;46511;53.148;8.204;2023-07-22T05:41:52;101267.44;;;17.47;100.00
48968;BME280;46511;53.148;8.204;2023-07-22T05:44:24;101269.19;;;17.70;100.00
48968;BME280;46511;53.148;8.204;2023-07-22T05:46:50;101273.94;;;17.66;100.00
48968;BME280;46511;53.148;8.204;2023-07-22T05:49:16;101269.53;;;17.65;100.00
48968;BME280;46511;53.148;8.204;2023-07-22T05:51:47;101271.91;;;17.92;100.00
48968;BME280;46511;53.148;8.204;2023-07-22T05:54:19;101270.31;;;18.55;100.00
48968;BME280;46511;53.148;8.204;2023-07-22T05:56:50;101269.28;;;17.57;100.00
48968;BME280;46511;53.148;8.204;2023-07-22T05:59:21;101272.47;;;17.62;100.00
48968;BME280;46511;53.148;8.204;2023-07-22T06:01:52;101279.28;;;17.09;100.00
48968;BME280;46511;53.148;8.204;2023-07-22T06:04:23;101279.00;;;17.82;100.00
48968;BME280;46511;53.148;8.204;2023-07-22T06:06:55;101277.13;;;18.16;100.00
48968;BME280;46511;53.148;8.204;2023-07-22T06:09:26;101275.03;;;18.31;100.00
48968;BME280;46511;53.148;8.204;2023-07-22T06:11:57;101275.25;;;18.50;100.00
48968;BME280;46511;53.148;8.204;2023-07-22T06:14:29;101277.72;;;18.42;100.00
48968;BME280;46511;53.148;8.204;2023-07-22T06:17:00;101280.63;;;18.50;100.00
48968;BME280;46511;53.148;8.204;2023-07-22T06:19:31;101268.16;;;18.49;100.00
48968;BME280;46511;53.148;8.204;2023-07-22T06:22:02;101265.56;;;19.44;100.00
48968;BME280;46511;53.148;8.204;2023-07-22T06:24:33;101268.97;;;19.46;100.00
48968;BME280;46511;53.148;8.204;2023-07-22T06:27:05;101274.00;;;20.52;100.00
48968;BME280;46511;53.148;8.204;2023-07-22T06:29:36;101256.50;;;21.53;100.00
48968;BME280;46511;53.148;8.204;2023-07-22T06:32:07;101249.06;;;22.57;100.00
48968;BME280;46511;53.148;8.204;2023-07-22T06:34:39;101256.16;;;23.29;100.00
48968;BME280;46511;53.148;8.204;2023-07-22T06:37:10;101260.34;;;22.70;100.00
48968;BME280;46511;53.148;8.204;2023-07-22T06:39:41;101258.72;;;22.14;100.00
48968;BME280;46511;53.148;8.204;2023-07-22T06:42:13;101261.28;;;22.06;100.00
48968;BME280;46511;53.148;8.204;2023-07-22T06:44:44;101264.38;;;22.66;100.00
48968;BME280;46511;53.148;8.204;2023-07-22T06:47:15;101261.91;;;21.53;100.00
48968;BME280;46511;53.148;8.204;2023-07-22T06:49:47;101270.59;;;20.50;100.00
48968;BME280;46511;53.148;8.204;2023-07-22T06:52:18;101265.06;;;20.11;100.00
48968;BME280;46511;53.148;8.204;2023-07-22T06:54:49;101261.75;;;19.67;100.00
48968;BME280;46511;53.148;8.204;2023-07-22T06:57:20;101269.75;;;19.79;100.00
48968;BME280;46511;53.148;8.204;2023-07-22T06:59:55;101265.63;;;20.84;100.00
48968;BME280;46511;53.148;8.204;2023-07-22T07:02:26;101263.22;;;21.29;100.00
48968;BME280;46511;53.148;8.204;2023-07-22T07:04:53;101256.50;;;22.90;100.00
48968;BME280;46511;53.148;8.204;2023-07-22T07:07:24;101256.31;;;22.38;100.00
48968;BME280;46511;53.148;8.204;2023-07-22T07:09:55;101251.47;;;23.13;100.00
48968;BME280;46511;53.148;8.204;2023-07-22T07:12:26;101252.94;;;23.07;100.00
48968;BME280;46511;53.148;8.204;2023-07-22T07:14:58;101265.66;;;24.45;97.89
48968;BME280;46511;53.148;8.204;2023-07-22T07:17:29;101255.19;;;24.74;94.31
48968;BME280;46511;53.148;8.204;2023-07-22T07:20:00;101251.00;;;23.18;100.00
48968;BME280;46511;53.148;8.204;2023-07-22T07:22:32;101255.13;;;22.86;100.00
48968;BME280;46511;53.148;8.204;2023-07-22T07:25:03;101251.88;;;23.00;100.00
48968;BME280;46511;53.148;8.204;2023-07-22T07:27:34;101257.16;;;24.48;97.29
48968;BME280;46511;53.148;8.204;2023-07-22T07:30:06;101247.31;;;26.64;85.19
48968;BME280;46511;53.148;8.204;2023-07-22T07:32:39;101241.03;;;28.06;67.56
48968;BME280;46511;53.148;8.204;2023-07-22T07:35:10;101253.25;;;27.51;70.14
48968;BME280;46511;53.148;8.204;2023-07-22T07:37:42;101247.88;;;26.12;82.54
48968;BME280;46511;53.148;8.204;2023-07-22T07:40:13;101247.66;;;30.30;57.94
48968;BME280;46511;53.148;8.204;2023-07-22T07:42:45;101255.03;;;28.47;60.15
48968;BME280;46511;53.148;8.204;2023-07-22T07:45:16;101247.16;;;30.07;55.59
48968;BME280;46511;53.148;8.204;2023-07-22T07:47:42;101249.72;;;30.15;51.53
48968;BME280;46511;53.148;8.204;2023-07-22T07:50:14;101248.59;;;29.75;49.78
48968;BME280;46511;53.148;8.204;2023-07-22T07:52:45;101246.16;;;31.02;45.64
48968;BME280;46511;53.148;8.204;2023-07-22T07:55:16;101247.03;;;31.55;45.42
48968;BME280;46511;53.148;8.204;2023-07-22T07:57:47;101254.78;;;30.18;45.94
48968;BME280;46511;53.148;8.204;2023-07-22T08:00:19;101257.53;;;26.85;61.75
48968;BME280;46511;53.148;8.204;2023-07-22T08:02:51;101262.81;;;25.69;73.67
48968;BME280;46511;53.148;8.204;2023-07-22T08:05:22;101269.06;;;24.63;85.75
48968;BME280;46511;53.148;8.204;2023-07-22T08:07:54;101257.59;;;25.18;86.46
48968;BME280;46511;53.148;8.204;2023-07-22T08:10:25;101259.28;;;24.95;86.53
48968;BME280;46511;53.148;8.204;2023-07-22T08:12:56;101256.06;;;25.08;81.92
48968;BME280;46511;53.148;8.204;2023-07-22T08:15:28;101261.22;;;25.99;77.08
48968;BME280;46511;53.148;8.204;2023-07-22T08:17:59;101256.13;;;25.96;73.10
48968;BME280;46511;53.148;8.204;2023-07-22T08:20:30;101256.97;;;26.35;72.01
48968;BME280;46511;53.148;8.204;2023-07-22T08:23:01;101258.34;;;26.93;69.15
48968;BME280;46511;53.148;8.204;2023-07-22T08:25:32;101263.50;;;28.23;61.79
48968;BME280;46511;53.148;8.204;2023-07-22T08:28:04;101259.22;;;27.84;63.80
48968;BME280;46511;53.148;8.204;2023-07-22T08:30:35;101267.44;;;27.09;68.65
48968;BME280;46511;53.148;8.204;2023-07-22T08:33:06;101266.88;;;28.54;60.34
48968;BME280;46511;53.148;8.204;2023-07-22T08:35:42;101262.88;;;28.35;59.41
48968;BME280;46511;53.148;8.204;2023-07-22T08:38:14;101261.38;;;27.74;61.49
48968;BME280;46511;53.148;8.204;2023-07-22T08:40:47;101261.81;;;28.22;60.87
48968;BME280;46511;53.148;8.204;2023-07-22T08:43:20;101256.78;;;26.06;75.04
48968;BME280;46511;53.148;8.204;2023-07-22T08:45:52;101257.22;;;25.78;77.79
48968;BME280;46511;53.148;8.204;2023-07-22T08:48:25;101255.81;;;25.82;75.57
48968;BME280;46511;53.148;8.204;2023-07-22T08:51:04;101258.38;;;24.62;89.36
48968;BME280;46511;53.148;8.204;2023-07-22T08:53:35;101255.56;;;23.95;92.36
48968;BME280;46511;53.148;8.204;2023-07-22T08:56:08;101258.56;;;24.18;94.16
48968;BME280;46511;53.148;8.204;2023-07-22T08:58:39;101255.88;;;23.84;95.22
48968;BME280;46511;53.148;8.204;2023-07-22T09:01:12;101257.66;;;24.01;94.28
48968;BME280;46511;53.148;8.204;2023-07-22T09:03:43;101248.03;;;24.82;91.59
48968;BME280;46511;53.148;8.204;2023-07-22T09:06:15;101248.03;;;25.71;84.42
48968;BME280;46511;53.148;8.204;2023-07-22T09:08:46;101245.38;;;25.30;86.32
48968;BME280;46511;53.148;8.204;2023-07-22T09:11:18;101247.56;;;24.19;92.90
48968;BME280;46511;53.148;8.204;2023-07-22T09:13:50;101247.00;;;23.30;98.93
48968;BME280;46511;53.148;8.204;2023-07-22T09:16:22;101241.06;;;24.12;96.81
48968;BME280;46511;53.148;8.204;2023-07-22T09:18:56;101249.59;;;26.05;84.01
48968;BME280;46511;53.148;8.204;2023-07-22T09:21:28;101239.38;;;29.20;62.89
48968;BME280;46511;53.148;8.204;2023-07-22T09:23:59;101249.50;;;27.14;68.60
48968;BME280;46511;53.148;8.204;2023-07-22T09:26:32;101245.78;;;28.48;61.04
48968;BME280;46511;53.148;8.204;2023-07-22T09:29:03;101229.22;;;26.32;73.87
48968;BME280;46511;53.148;8.204;2023-07-22T09:31:45;101226.34;;;26.87;74.27
48968;BME280;46511;53.148;8.204;2023-07-22T09:34:18;101237.06;;;27.64;68.07
48968;BME280;46511;53.148;8.204;2023-07-22T09:36:51;101233.63;;;26.02;77.54
48968;BME280;46511;53.148;8.204;2023-07-22T09:39:23;101234.81;;;26.46;83.24
48968;BME280;46511;53.148;8.204;2023-07-22T09:41:54;101228.91;;;30.40;54.50
48968;BME280;46511;53.148;8.204;2023-07-22T09:44:32;101219.75;;;29.72;52.04
48968;BME280;46511;53.148;8.204;2023-07-22T09:47:08;101225.66;;;28.20;54.95
48968;BME280;46511;53.148;8.204;2023-07-22T09:49:40;101235.47;;;24.72;83.16
48968;BME280;46511;53.148;8.204;2023-07-22T09:52:13;101237.53;;;25.19;81.63
48968;BME280;46511;53.148;8.204;2023-07-22T09:54:47;101228.81;;;25.56;77.64
48968;BME280;46511;53.148;8.204;2023-07-22T09:57:20;101221.91;;;25.29;81.09
48968;BME280;46511;53.148;8.204;2023-07-22T09:59:51;101231.81;;;23.89;91.16
48968;BME280;46511;53.148;8.204;2023-07-22T10:02:24;101235.47;;;24.72;90.44
48968;BME280;46511;53.148;8.204;2023-07-22T10:04:55;101217.84;;;25.33;89.38
48968;BME280;46511;53.148;8.204;2023-07-22T10:07:28;101223.25;;;26.44;75.74
48968;BME280;46511;53.148;8.204;2023-07-22T10:10:00;101221.03;;;26.09;76.73
48968;BME280;46511;53.148;8.204;2023-07-22T10:12:32;101210.91;;;27.99;69.29
48968;BME280;46511;53.148;8.204;2023-07-22T10:15:04;101213.22;;;28.32;60.52
48968;BME280;46511;53.148;8.204;2023-07-22T10:17:35;101207.97;;;27.42;61.58
48968;BME280;46511;53.148;8.204;2023-07-22T10:20:07;101217.09;;;27.64;60.52
48968;BME280;46511;53.148;8.204;2023-07-22T10:22:39;101213.53;;;27.48;61.12
48968;BME280;46511;53.148;8.204;2023-07-22T10:25:20;101210.09;;;26.48;65.12
48968;BME280;46511;53.148;8.204;2023-07-22T10:27:52;101218.09;;;25.63;76.03
48968;BME280;46511;53.148;8.204;2023-07-22T10:30:23;101212.34;;;24.36;86.88
48968;BME280;46511;53.148;8.204;2023-07-22T10:32:54;101215.84;;;25.11;85.38
48968;BME280;46511;53.148;8.204;2023-07-22T10:38:09;101208.56;;;25.67;81.64
48968;BME280;46511;53.148;8.204;2023-07-22T10:40:52;101206.75;;;26.38;77.96
48968;BME280;46511;53.148;8.204;2023-07-22T10:43:24;101204.06;;;25.99;79.80
48968;BME280;46511;53.148;8.204;2023-07-22T10:45:56;101200.78;;;25.56;81.55
48968;BME280;46511;53.148;8.204;2023-07-22T10:48:34;101214.28;;;24.17;93.89
48968;BME280;46511;53.148;8.204;2023-07-22T10:51:12;101213.03;;;24.46;90.22
48968;BME280;46511;53.148;8.204;2023-07-22T10:53:44;101215.78;;;23.70;93.33
48968;BME280;46511;53.148;8.204;2023-07-22T10:56:18;101218.72;;;22.71;98.20
48968;BME280;46511;53.148;8.204;2023-07-22T11:14:30;101208.84;;;23.49;96.39
48968;BME280;46511;53.148;8.204;2023-07-22T11:17:02;101212.47;;;23.06;98.64
48968;BME280;46511;53.148;8.204;2023-07-22T11:19:36;101206.44;;;22.94;100.00
48968;BME280;46511;53.148;8.204;2023-07-22T11:22:08;101204.41;;;22.78;100.00
48968;BME280;46511;53.148;8.204;2023-07-22T11:24:39;101203.63;;;22.33;100.00
48968;BME280;46511;53.148;8.204;2023-07-22T11:27:11;101209.94;;;22.23;100.00
48968;BME280;46511;53.148;8.204;2023-07-22T11:29:43;101211.84;;;21.49;100.00
48968;BME280;46511;53.148;8.204;2023-07-22T11:32:15;101218.63;;;20.77;100.00
48968;BME280;46511;53.148;8.204;2023-07-22T11:34:51;101221.13;;;20.40;100.00
48968;BME280;46511;53.148;8.204;2023-07-22T11:37:25;101228.13;;;20.02;100.00
48968;BME280;46511;53.148;8.204;2023-07-22T11:40:01;101231.59;;;19.83;100.00
48968;BME280;46511;53.148;8.204;2023-07-22T11:42:34;101232.84;;;19.79;100.00
48968;BME280;46511;53.148;8.204;2023-07-22T11:45:05;101240.00;;;19.90;100.00
48968;BME280;46511;53.148;8.204;2023-07-22T11:47:36;101236.97;;;20.23;100.00
48968;BME280;46511;53.148;8.204;2023-07-22T11:50:08;101244.84;;;20.46;100.00
48968;BME280;46511;53.148;8.204;2023-07-22T11:52:40;101260.38;;;19.73;100.00
48968;BME280;46511;53.148;8.204;2023-07-22T11:55:11;101266.84;;;19.71;100.00
48968;BME280;46511;53.148;8.204;2023-07-22T11:57:42;101280.84;;;19.85;100.00
48968;BME280;46511;53.148;8.204;2023-07-22T12:00:22;101275.78;;;19.50;100.00
48968;BME280;46511;53.148;8.204;2023-07-22T12:02:53;101285.81;;;19.59;100.00
48968;BME280;46511;53.148;8.204;2023-07-22T12:05:28;101283.38;;;19.56;100.00
48968;BME280;46511;53.148;8.204;2023-07-22T12:07:59;101281.66;;;19.55;100.00
48968;BME280;46511;53.148;8.204;2023-07-22T12:10:30;101274.38;;;19.46;100.00
48968;BME280;46511;53.148;8.204;2023-07-22T12:13:01;101276.25;;;19.76;100.00
48968;BME280;46511;53.148;8.204;2023-07-22T12:15:33;101283.16;;;19.48;100.00
48968;BME280;46511;53.148;8.204;2023-07-22T12:18:04;101286.56;;;19.61;100.00
48968;BME280;46511;53.148;8.204;2023-07-22T12:20:31;101283.28;;;20.29;100.00
48968;BME280;46511;53.148;8.204;2023-07-22T12:23:04;101266.94;;;20.80;100.00
48968;BME280;46511;53.148;8.204;2023-07-22T12:25:35;101272.69;;;20.46;100.00
48968;BME280;46511;53.148;8.204;2023-07-22T12:28:01;101267.47;;;20.54;100.00
48968;BME280;46511;53.148;8.204;2023-07-22T12:30:33;101268.31;;;20.55;100.00
48968;BME280;46511;53.148;8.204;2023-07-22T12:33:04;101260.97;;;20.96;100.00
48968;BME280;46511;53.148;8.204;2023-07-22T12:35:35;101267.78;;;20.90;100.00
48968;BME280;46511;53.148;8.204;2023-07-22T12:38:06;101259.38;;;21.32;100.00
48968;BME280;46511;53.148;8.204;2023-07-22T12:40:38;101252.16;;;21.32;100.00
48968;BME280;46511;53.148;8.204;2023-07-22T12:43:09;101252.50;;;21.57;100.00
48968;BME280;46511;53.148;8.204;2023-07-22T12:45:40;101250.41;;;21.12;100.00
48968;BME280;46511;53.148;8.204;2023-07-22T12:48:11;101244.16;;;21.21;100.00
48968;BME280;46511;53.148;8.204;2023-07-22T12:50:45;101235.75;;;21.44;100.00
48968;BME280;46511;53.148;8.204;2023-07-22T12:53:19;101245.03;;;21.78;100.00
48968;BME280;46511;53.148;8.204;2023-07-22T12:55:50;101238.47;;;21.44;100.00
48968;BME280;46511;53.148;8.204;2023-07-22T12:58:22;101246.28;;;21.84;100.00
48968;BME280;46511;53.148;8.204;2023-07-22T13:00:53;101238.69;;;21.60;100.00
48968;BME280;46511;53.148;8.204;2023-07-22T13:03:24;101247.56;;;21.43;100.00
48968;BME280;46511;53.148;8.204;2023-07-22T13:05:55;101227.69;;;21.34;100.00
48968;BME280;46511;53.148;8.204;2023-07-22T13:08:27;101222.88;;;20.99;100.00
48968;BME280;46511;53.148;8.204;2023-07-22T13:10:58;101241.31;;;20.65;100.00
48968;BME280;46511;53.148;8.204;2023-07-22T13:13:29;101244.38;;;20.21;100.00
48968;BME280;46511;53.148;8.204;2023-07-22T13:16:00;101244.06;;;20.24;100.00
48968;BME280;46511;53.148;8.204;2023-07-22T13:18:32;101241.84;;;20.30;100.00
48968;BME280;46511;53.148;8.204;2023-07-22T13:21:03;101235.00;;;20.25;100.00
48968;BME280;46511;53.148;8.204;2023-07-22T13:23:34;101234.97;;;20.16;100.00